createdAt,value
2018-02-01T00:01:04.921Z,81.13
2018-02-01T00:03:32.550Z,77.40
2018-02-01T00:06:00.666Z,75.60
2018-02-01T00:08:28.211Z,82.63
2018-02-01T00:10:55.760Z,80.93
2018-02-01T00:13:23.356Z,77.90
2018-02-01T00:15:50.899Z,79.00
2018-02-01T00:18:18.494Z,82.20
2018-02-01T00:20:46.627Z,75.20
2018-02-01T00:23:14.166Z,77.67
2018-02-01T00:25:41.750Z,74.57
2018-02-01T00:28:09.301Z,73.90
2018-02-01T00:30:36.900Z,68.30
2018-02-01T00:33:04.446Z,81.00
2018-02-01T00:35:32.070Z,81.07
2018-02-01T00:37:59.699Z,68.73
2018-02-01T00:40:27.248Z,72.20
2018-02-01T00:42:54.892Z,69.80
2018-02-01T00:45:22.506Z,75.07
2018-02-01T00:47:50.095Z,79.20
2018-02-01T00:50:17.634Z,77.37
2018-02-01T00:52:45.255Z,77.33
2018-02-01T00:55:12.812Z,70.00
2018-02-01T00:57:40.358Z,73.97
2018-02-01T01:00:08.605Z,76.77
2018-02-01T01:02:36.155Z,78.10
2018-02-01T01:05:03.751Z,69.20
2018-02-01T01:07:31.308Z,69.30
2018-02-01T01:09:58.866Z,71.67
2018-02-01T01:12:26.463Z,75.37
2018-02-01T01:14:54.016Z,73.40
2018-02-01T01:17:22.035Z,72.83
2018-02-01T01:19:49.574Z,75.33
2018-02-01T01:22:17.123Z,74.63
2018-02-01T01:24:44.751Z,75.20
2018-02-01T01:27:12.299Z,73.07
2018-02-01T01:29:39.868Z,76.73
2018-02-01T01:32:07.489Z,82.73
2018-02-01T01:34:35.627Z,67.20
2018-02-01T01:37:03.201Z,68.70
2018-02-01T01:39:30.778Z,71.97
2018-02-01T01:41:59.491Z,69.20
2018-02-01T01:44:27.088Z,76.13
2018-02-01T01:46:54.658Z,79.27
2018-02-01T01:49:22.256Z,67.27
2018-02-01T01:51:50.104Z,76.77
2018-02-01T01:54:17.668Z,74.00
2018-02-01T01:56:45.635Z,74.37
2018-02-01T01:59:13.240Z,69.60
2018-02-01T02:01:40.844Z,68.87
2018-02-01T02:04:08.435Z,71.47
2018-02-01T02:06:37.431Z,65.63
2018-02-01T02:09:05.089Z,64.47
2018-02-01T02:11:32.717Z,73.37
2018-02-01T02:14:00.963Z,74.67
2018-02-01T02:16:28.520Z,68.27
2018-02-01T02:18:56.424Z,68.93
2018-02-01T02:21:24.031Z,71.63
2018-02-01T02:23:52.039Z,70.37
2018-02-01T02:26:19.636Z,72.37
2018-02-01T02:28:47.192Z,68.97
2018-02-01T02:31:14.938Z,67.37
2018-02-01T02:33:42.876Z,66.87
2018-02-01T02:36:10.843Z,67.50
2018-02-01T02:38:38.431Z,72.73
2018-02-01T02:41:06.424Z,68.53
2018-02-01T02:43:34.369Z,67.83
2018-02-01T02:46:01.968Z,62.03
2018-02-01T02:48:29.572Z,63.60
2018-02-01T02:50:57.120Z,65.07
2018-02-01T02:53:24.713Z,63.07
2018-02-01T02:55:52.288Z,69.57
2018-02-01T02:58:20.712Z,68.17
2018-02-01T03:00:48.715Z,69.03
2018-02-01T03:03:16.268Z,69.20
2018-02-01T03:05:44.000Z,65.53
2018-02-01T03:08:11.587Z,62.77
2018-02-01T03:10:39.174Z,62.13
2018-02-01T03:13:06.724Z,62.43
2018-02-01T03:15:34.333Z,65.93
2018-02-01T03:18:01.883Z,60.77
2018-02-01T03:20:29.434Z,67.57
2018-02-01T03:22:57.540Z,64.93
2018-02-01T03:25:25.431Z,64.00
2018-02-01T03:27:52.980Z,62.17
2018-02-01T03:30:20.565Z,57.70
2018-02-01T03:32:48.478Z,61.67
2018-02-01T03:35:16.027Z,62.23
2018-02-01T03:37:43.637Z,67.50
2018-02-01T03:40:11.193Z,62.37
2018-02-01T03:42:38.741Z,57.27
2018-02-01T03:45:07.303Z,58.00
2018-02-01T03:47:35.488Z,63.37
2018-02-01T03:50:03.996Z,61.53
2018-02-01T03:52:32.061Z,57.17
2018-02-01T03:54:59.669Z,55.17
2018-02-01T03:57:27.244Z,57.27
2018-02-01T03:59:54.796Z,52.87
2018-02-01T04:02:22.398Z,52.60
2018-02-01T04:04:49.947Z,54.97
2018-02-01T04:07:17.530Z,55.53
2018-02-01T04:09:45.077Z,57.37
2018-02-01T04:12:12.803Z,51.93
2018-02-01T04:14:40.406Z,52.97
2018-02-01T04:17:07.996Z,53.23
2018-02-01T04:19:35.592Z,52.83
2018-02-01T04:22:03.178Z,50.97
2018-02-01T04:24:30.772Z,53.00
2018-02-01T04:26:58.568Z,48.43
2018-02-01T04:29:26.676Z,51.20
2018-02-01T04:31:54.222Z,54.17
2018-02-01T04:34:21.770Z,45.70
2018-02-01T04:36:49.355Z,51.27
2018-02-01T04:39:16.898Z,47.73
2018-02-01T04:41:45.290Z,48.00
2018-02-01T04:44:12.840Z,47.43
2018-02-01T04:46:41.345Z,48.57
2018-02-01T04:49:08.891Z,47.03
2018-02-01T04:51:36.480Z,48.43
2018-02-01T04:54:04.022Z,50.00
2018-02-01T04:56:31.606Z,51.60
2018-02-01T04:58:59.212Z,54.13
2018-02-01T05:01:26.786Z,50.60
2018-02-01T05:03:54.330Z,52.13
2018-02-01T05:06:21.923Z,53.10
2018-02-01T05:08:49.888Z,49.80
2018-02-01T05:11:17.487Z,49.17
2018-02-01T05:13:45.031Z,41.97
2018-02-01T05:16:14.059Z,47.23
2018-02-01T05:18:41.976Z,47.83
2018-02-01T05:21:09.531Z,45.60
2018-02-01T05:23:37.092Z,47.87
2018-02-01T05:26:04.683Z,44.13
2018-02-01T05:28:32.278Z,49.03
2018-02-01T05:30:59.885Z,47.90
2018-02-01T05:33:27.452Z,50.53
2018-02-01T05:35:55.047Z,46.20
2018-02-01T05:38:22.595Z,48.90
2018-02-01T05:40:50.811Z,43.47
2018-02-01T05:43:18.898Z,48.43
2018-02-01T05:45:47.044Z,48.63
2018-02-01T05:48:14.622Z,47.47
2018-02-01T05:50:42.210Z,56.53
2018-02-01T05:53:10.211Z,52.30
2018-02-01T05:55:37.816Z,45.78
2018-02-01T05:58:05.371Z,46.67
2018-02-01T06:00:32.928Z,49.83
2018-02-01T06:03:00.524Z,51.63
2018-02-01T06:05:28.212Z,45.83
2018-02-01T06:07:55.823Z,51.75
2018-02-01T06:10:23.381Z,50.63
2018-02-01T06:12:50.931Z,53.53
2018-02-01T06:15:18.494Z,54.97
2018-02-01T06:17:46.111Z,58.03
2018-02-01T06:20:13.674Z,54.92
2018-02-01T06:22:41.288Z,60.83
2018-02-01T06:25:08.858Z,59.63
2018-02-01T06:27:36.484Z,60.93
2018-02-01T06:30:04.040Z,59.60
2018-02-01T06:32:31.588Z,53.47
2018-02-01T06:34:59.206Z,57.70
2018-02-01T06:37:27.307Z,63.17
2018-02-01T06:39:55.915Z,52.97
2018-02-01T06:42:23.831Z,61.07
2018-02-01T06:44:51.513Z,60.57
2018-02-01T06:47:20.605Z,59.20
2018-02-01T06:49:48.213Z,61.05
2018-02-01T06:52:15.782Z,57.10
2018-02-01T06:54:44.420Z,55.57
2018-02-01T06:57:12.698Z,59.57
2018-02-01T06:59:40.286Z,58.95
2018-02-01T07:02:08.750Z,57.13
2018-02-01T07:04:36.674Z,65.47
2018-02-01T07:07:05.092Z,60.67
2018-02-01T07:09:32.988Z,64.70
2018-02-01T07:12:01.046Z,66.33
2018-02-01T07:14:29.220Z,68.27
2018-02-01T07:16:56.874Z,77.20
2018-02-01T07:19:24.908Z,80.13
2018-02-01T07:21:52.464Z,85.93
2018-02-01T07:24:20.087Z,81.90
2018-02-01T07:26:47.755Z,73.83
2018-02-01T07:29:16.126Z,80.70
2018-02-01T07:31:43.951Z,82.07
2018-02-01T07:34:11.573Z,71.33
2018-02-01T07:36:39.445Z,88.10
2018-02-01T07:39:07.048Z,72.30
2018-02-01T07:41:35.625Z,73.47
2018-02-01T07:44:03.355Z,79.57
2018-02-01T07:46:31.035Z,65.40
2018-02-01T07:48:58.811Z,76.62
2018-02-01T07:51:26.358Z,73.20
2018-02-01T07:53:53.983Z,67.33
2018-02-01T07:56:21.632Z,62.77
2018-02-01T07:58:49.819Z,72.67
2018-02-01T08:01:17.711Z,66.27
2018-02-01T08:03:45.279Z,61.95
2018-02-01T08:06:12.882Z,57.83
2018-02-01T08:08:40.494Z,62.20
2018-02-01T08:11:08.096Z,56.27
2018-02-01T08:13:35.728Z,59.43
2018-02-01T08:16:03.618Z,61.10
2018-02-01T08:18:31.861Z,56.90
2018-02-01T08:20:59.502Z,50.17
2018-02-01T08:23:27.085Z,55.03
2018-02-01T08:25:54.674Z,55.90
2018-02-01T08:28:23.178Z,60.47
2018-02-01T08:30:51.887Z,51.70
2018-02-01T08:33:19.472Z,55.33
2018-02-01T08:35:47.093Z,52.58
2018-02-01T08:38:14.718Z,57.17
2018-02-01T08:40:42.263Z,57.20
2018-02-01T08:43:09.816Z,53.37
2018-02-01T08:45:37.440Z,54.73
2018-02-01T08:48:05.407Z,52.87
2018-02-01T08:50:32.969Z,52.85
2018-02-01T08:53:00.571Z,52.77
2018-02-01T08:55:28.115Z,51.20
2018-02-01T08:57:55.708Z,53.77
2018-02-01T09:00:23.272Z,48.53
2018-02-01T09:02:50.891Z,49.63
2018-02-01T09:05:18.487Z,50.63
2018-02-01T09:07:46.079Z,46.90
2018-02-01T09:10:14.044Z,49.97
2018-02-01T09:12:41.716Z,47.83
2018-02-01T09:15:09.317Z,49.38
2018-02-01T09:17:36.944Z,55.33
2018-02-01T09:20:04.633Z,44.77
2018-02-01T09:22:32.367Z,41.67
2018-02-01T09:24:59.914Z,43.13
2018-02-01T09:27:27.920Z,50.67
2018-02-01T09:29:55.467Z,51.73
2018-02-01T09:32:23.055Z,48.13
2018-02-01T09:34:50.650Z,44.92
2018-02-01T09:37:18.236Z,49.20
2018-02-01T09:39:45.854Z,47.90
2018-02-01T09:42:13.434Z,47.87
2018-02-01T09:44:41.103Z,44.58
2018-02-01T09:47:08.795Z,41.57
2018-02-01T09:49:36.892Z,48.20
2018-02-01T09:52:04.501Z,46.97
2018-02-01T09:54:32.067Z,45.23
2018-02-01T09:56:59.646Z,55.13
2018-02-01T09:59:27.489Z,61.15
2018-02-01T10:01:55.035Z,45.77
2018-02-01T10:04:22.699Z,50.30
2018-02-01T10:06:50.661Z,51.50
2018-02-01T10:09:18.251Z,55.87
2018-02-01T10:11:45.819Z,49.67
2018-02-01T10:14:15.314Z,47.30
2018-02-01T10:16:42.912Z,46.90
2018-02-01T10:19:10.455Z,52.57
2018-02-01T10:21:38.047Z,48.33
2018-02-01T10:24:05.592Z,47.67
2018-02-01T10:26:34.140Z,48.77
2018-02-01T10:29:01.716Z,47.95
2018-02-01T10:31:29.259Z,42.90
2018-02-01T10:33:56.855Z,41.90
2018-02-01T10:36:24.690Z,41.03
2018-02-01T10:38:52.641Z,41.27
2018-02-01T10:41:20.211Z,42.23
2018-02-01T10:43:47.816Z,41.63
2018-02-01T10:46:15.366Z,35.67
2018-02-01T10:48:42.963Z,35.57
2018-02-01T10:51:10.555Z,35.27
2018-02-01T10:53:38.153Z,38.83
2018-02-01T10:56:05.762Z,39.47
2018-02-01T10:58:33.350Z,33.60
2018-02-01T11:01:00.916Z,41.83
2018-02-01T11:03:28.513Z,36.78
2018-02-01T11:05:57.467Z,39.60
2018-02-01T11:08:26.040Z,37.37
2018-02-01T11:10:53.591Z,37.90
2018-02-01T11:13:21.716Z,34.08
2018-02-01T11:15:49.320Z,36.83
2018-02-01T11:18:16.930Z,36.60
2018-02-01T11:20:44.563Z,38.42
2018-02-01T11:23:12.107Z,37.63
2018-02-01T11:25:39.732Z,32.63
2018-02-01T11:28:07.329Z,35.10
2018-02-01T11:30:34.870Z,34.33
2018-02-01T11:33:02.941Z,37.87
2018-02-01T11:35:30.789Z,33.60
2018-02-01T11:37:58.469Z,39.13
2018-02-01T11:40:26.388Z,34.17
2018-02-01T11:42:53.937Z,37.10
2018-02-01T11:45:21.490Z,38.40
2018-02-01T11:47:49.083Z,39.90
2018-02-01T11:50:16.681Z,36.97
2018-02-01T11:52:44.224Z,34.83
2018-02-01T11:55:12.698Z,38.05
2018-02-01T11:57:40.342Z,37.03
2018-02-01T12:00:07.900Z,35.60
2018-02-01T12:02:35.528Z,37.47
2018-02-01T12:05:03.067Z,36.73
2018-02-01T12:07:30.610Z,36.23
2018-02-01T12:09:58.207Z,35.53
2018-02-01T12:12:26.144Z,33.37
2018-02-01T12:14:53.824Z,34.53
2018-02-01T12:17:21.436Z,32.90
2018-02-01T12:19:49.156Z,36.93
2018-02-01T12:22:17.639Z,33.03
2018-02-01T12:24:45.252Z,35.10
2018-02-01T12:27:12.993Z,39.30
2018-02-01T12:29:41.440Z,33.70
2018-02-01T12:32:10.000Z,32.97
2018-02-01T12:34:37.555Z,36.93
2018-02-01T12:37:05.160Z,33.47
2018-02-01T12:39:33.067Z,29.50
2018-02-01T12:42:01.206Z,29.83
2018-02-01T12:44:29.028Z,31.83
2018-02-01T12:46:56.646Z,33.25
2018-02-01T12:49:24.548Z,31.57
2018-02-01T12:51:52.168Z,32.07
2018-02-01T12:54:19.760Z,29.90
2018-02-01T12:56:47.454Z,28.60
2018-02-01T12:59:15.863Z,30.42
2018-02-01T13:01:43.407Z,35.77
2018-02-01T13:04:11.501Z,30.97
2018-02-01T13:06:39.198Z,31.47
2018-02-01T13:09:06.804Z,33.17
2018-02-01T13:11:34.407Z,30.50
2018-02-01T13:14:01.998Z,33.40
2018-02-01T13:16:29.596Z,30.17
2018-02-01T13:18:57.188Z,30.57
2018-02-01T13:21:24.799Z,31.42
2018-02-01T13:23:52.346Z,31.57
2018-02-01T13:26:20.667Z,26.83
2018-02-01T13:28:48.263Z,28.47
2018-02-01T13:31:16.684Z,29.80
2018-02-01T13:33:44.280Z,30.20
2018-02-01T13:36:13.040Z,36.03
2018-02-01T13:38:40.735Z,30.87
2018-02-01T13:41:08.506Z,28.97
2018-02-01T13:43:36.269Z,30.83
2018-02-01T13:46:03.917Z,27.70
2018-02-01T13:48:31.478Z,29.13
2018-02-01T13:50:59.029Z,30.77
2018-02-01T13:53:26.654Z,29.73
2018-02-01T13:55:54.786Z,35.13
2018-02-01T13:58:22.472Z,32.50
2018-02-01T14:00:50.619Z,33.13
2018-02-01T14:03:18.998Z,34.97
2018-02-01T14:05:46.610Z,42.97
2018-02-01T14:08:14.171Z,45.95
2018-02-01T14:10:41.947Z,38.00
2018-02-01T14:13:09.755Z,36.95
2018-02-01T14:15:37.364Z,36.13
2018-02-01T14:18:04.955Z,33.33
2018-02-01T14:20:32.555Z,28.77
2018-02-01T14:23:00.385Z,40.67
2018-02-01T14:25:27.978Z,31.40
2018-02-01T14:27:55.535Z,34.08
2018-02-01T14:30:23.144Z,31.40
2018-02-01T14:32:51.617Z,36.90
2018-02-01T14:35:19.164Z,34.85
2018-02-01T14:37:47.582Z,32.67
2018-02-01T14:40:15.389Z,33.87
2018-02-01T14:42:43.239Z,35.50
2018-02-01T14:45:10.810Z,40.23
2018-02-01T14:47:39.350Z,39.07
2018-02-01T14:50:06.949Z,38.77
2018-02-01T14:52:34.641Z,45.90
2018-02-01T14:55:02.971Z,43.85
2018-02-01T14:57:30.531Z,50.13
2018-02-01T14:59:58.075Z,50.42
2018-02-01T15:02:25.768Z,45.23
2018-02-01T15:04:53.356Z,50.40
2018-02-01T15:07:21.484Z,49.27
2018-02-01T15:09:49.912Z,52.97
2018-02-01T15:12:17.503Z,57.57
2018-02-01T15:14:45.073Z,42.07
2018-02-01T15:17:12.899Z,49.27
2018-02-01T15:19:40.617Z,76.13
2018-02-01T15:22:08.658Z,70.33
2018-02-01T15:24:36.215Z,65.68
2018-02-01T15:27:04.168Z,64.47
2018-02-01T15:29:32.334Z,69.13
2018-02-01T15:32:01.045Z,58.70
2018-02-01T15:34:29.685Z,62.97
2018-02-01T15:36:58.807Z,57.73
2018-02-01T15:39:26.769Z,56.33
2018-02-01T15:41:55.257Z,65.28
2018-02-01T15:44:23.257Z,52.37
2018-02-01T15:46:51.534Z,60.17
2018-02-01T15:49:20.532Z,64.37
2018-02-01T15:51:48.905Z,61.97
2018-02-01T15:54:16.476Z,57.63
2018-02-01T15:56:44.476Z,73.40
2018-02-01T15:59:12.830Z,72.07
2018-02-01T16:01:40.833Z,64.60
2018-02-01T16:04:08.769Z,69.33
2018-02-01T16:06:36.949Z,78.93
2018-02-01T16:09:05.419Z,97.57
2018-02-01T16:11:33.621Z,77.70
2018-02-01T16:14:02.492Z,89.83
2018-02-01T16:16:31.726Z,100.93
2018-02-01T16:19:01.566Z,113.73
2018-02-01T16:21:30.079Z,107.97
2018-02-01T16:24:00.206Z,106.40
2018-02-01T16:26:29.101Z,97.77
2018-02-01T16:28:58.792Z,107.17
2018-02-01T16:31:28.313Z,118.13
2018-02-01T16:33:59.059Z,134.43
2018-02-01T16:36:28.052Z,124.43
2018-02-01T16:38:59.185Z,118.57
2018-02-01T16:41:28.499Z,121.37
2018-02-01T16:43:57.160Z,136.37
2018-02-01T16:46:27.218Z,135.67
2018-02-01T16:48:55.243Z,125.20
2018-02-01T16:51:24.753Z,122.07
2018-02-01T16:53:53.248Z,118.83
2018-02-01T16:56:22.432Z,124.60
2018-02-01T16:58:52.666Z,127.40
2018-02-01T17:01:21.259Z,127.27
2018-02-01T17:03:51.649Z,126.80
2018-02-01T17:06:20.244Z,134.20
2018-02-01T17:08:48.715Z,137.47
2018-02-01T17:11:17.611Z,130.77
2018-02-01T17:13:46.300Z,123.17
2018-02-01T17:16:15.693Z,140.37
2018-02-01T17:18:44.076Z,125.80
2018-02-01T17:21:13.577Z,130.87
2018-02-01T17:23:43.941Z,139.73
2018-02-01T17:26:12.180Z,132.80
2018-02-01T17:28:43.018Z,141.77
2018-02-01T17:31:11.725Z,139.57
2018-02-01T17:33:40.198Z,151.03
2018-02-01T17:36:09.335Z,154.53
2018-02-01T17:38:37.379Z,156.30
2018-02-01T17:41:05.665Z,150.87
2018-02-01T17:43:34.936Z,162.50
2018-02-01T17:46:04.240Z,156.63
2018-02-01T17:48:34.742Z,165.97
2018-02-01T17:51:03.125Z,169.63
2018-02-01T17:53:32.154Z,170.10
2018-02-01T17:56:00.637Z,167.93
2018-02-01T17:58:29.189Z,173.47
2018-02-01T18:00:59.921Z,177.93
2018-02-01T18:03:29.026Z,178.30
2018-02-01T18:05:57.763Z,169.17
2018-02-01T18:08:26.269Z,178.17
2018-02-01T18:10:55.518Z,179.00
2018-02-01T18:13:23.771Z,182.80
2018-02-01T18:15:53.568Z,189.33
2018-02-01T18:18:23.159Z,185.73
2018-02-01T18:20:52.591Z,179.03
2018-02-01T18:23:20.856Z,188.60
2018-02-01T18:25:51.015Z,178.57
2018-02-01T18:28:19.823Z,182.37
2018-02-01T18:30:50.602Z,170.20
2018-02-01T18:33:19.588Z,179.50
2018-02-01T18:35:49.207Z,162.63
2018-02-01T18:38:19.521Z,162.90
2018-02-01T18:40:48.353Z,163.53
2018-02-01T18:43:17.654Z,157.97
2018-02-01T18:45:46.675Z,153.23
2018-02-01T18:48:16.254Z,165.77
2018-02-01T18:50:45.721Z,165.60
2018-02-01T18:53:15.227Z,163.53
2018-02-01T18:58:17.975Z,151.53
2018-02-01T19:00:46.871Z,156.30
2018-02-01T19:03:16.414Z,148.00
2018-02-01T19:05:44.546Z,145.70
2018-02-01T19:08:15.206Z,156.73
2018-02-01T19:10:43.351Z,148.07
2018-02-01T19:13:11.468Z,144.83
2018-02-01T19:15:40.215Z,141.17
2018-02-01T19:18:08.905Z,147.40
2018-02-01T19:20:38.305Z,145.77
2018-02-01T19:23:07.675Z,138.50
2018-02-01T19:25:36.190Z,137.07
2018-02-01T19:28:06.743Z,138.23
2018-02-01T19:30:35.661Z,138.03
2018-02-01T19:33:04.119Z,136.87
2018-02-01T19:35:32.520Z,136.53
2018-02-01T19:38:01.576Z,132.37
2018-02-01T19:40:29.945Z,132.40
2018-02-01T19:43:00.207Z,121.50
2018-02-01T19:45:29.055Z,133.13
2018-02-01T19:47:58.463Z,129.87
2018-02-01T19:50:27.652Z,131.60
2018-02-01T19:52:56.889Z,124.57
2018-02-01T19:55:25.136Z,131.57
2018-02-01T19:57:54.124Z,122.87
2018-02-01T20:00:22.581Z,128.50
2018-02-01T20:02:51.701Z,123.07
2018-02-01T20:05:22.542Z,117.07
2018-02-01T20:07:51.160Z,125.50
2018-02-01T20:10:21.273Z,112.87
2018-02-01T20:12:50.989Z,117.50
2018-02-01T20:15:19.817Z,119.07
2018-02-01T20:17:49.658Z,119.43
2018-02-01T20:20:19.365Z,120.93
2018-02-01T20:22:47.660Z,114.07
2018-02-01T20:25:16.123Z,111.10
2018-02-01T20:27:46.886Z,117.27
2018-02-01T20:30:16.970Z,110.30
2018-02-01T20:32:45.078Z,107.80
2018-02-01T20:35:14.079Z,109.00
2018-02-01T20:37:43.987Z,104.50
2018-02-01T20:40:14.606Z,98.67
2018-02-01T20:42:44.072Z,101.70
2018-02-01T20:45:13.289Z,100.60
2018-02-01T20:47:42.501Z,100.93
2018-02-01T20:50:10.555Z,108.47
2018-02-01T20:52:38.843Z,101.67
2018-02-01T20:55:06.834Z,99.40
2018-02-01T20:57:35.092Z,99.13
2018-02-01T21:00:04.071Z,105.87
2018-02-01T21:02:32.258Z,111.53
2018-02-01T21:05:00.520Z,103.97
2018-02-01T21:07:32.288Z,102.70
2018-02-01T21:10:02.503Z,109.90
2018-02-01T21:12:30.520Z,106.47
2018-02-01T21:14:59.563Z,109.63
2018-02-01T21:17:28.048Z,104.87
2018-02-01T21:19:57.551Z,111.73
2018-02-01T21:22:27.459Z,111.57
2018-02-01T21:24:56.767Z,107.80
2018-02-01T21:27:25.061Z,114.80
2018-02-01T21:29:53.486Z,116.93
2018-02-01T21:32:21.815Z,112.07
2018-02-01T21:34:50.421Z,111.90
2018-02-01T21:37:19.592Z,110.63
2018-02-01T21:39:47.763Z,103.33
2018-02-01T21:42:15.857Z,100.17
2018-02-01T21:44:44.543Z,105.87
2018-02-01T21:47:13.403Z,103.00
2018-02-01T21:49:42.028Z,98.97
2018-02-01T21:52:10.013Z,90.80
2018-02-01T21:54:38.056Z,95.57
2018-02-01T21:57:06.728Z,84.40
2018-02-01T21:59:35.088Z,95.37
2018-02-01T22:02:03.363Z,93.50
2018-02-01T22:04:32.294Z,93.00
2018-02-01T22:07:00.630Z,96.67
2018-02-01T22:09:28.726Z,94.10
2018-02-01T22:11:56.815Z,92.77
2018-02-01T22:14:24.806Z,100.20
2018-02-01T22:16:52.757Z,98.43
2018-02-01T22:19:21.602Z,87.10
2018-02-01T22:21:49.601Z,97.20
2018-02-01T22:24:17.688Z,95.70
2018-02-01T22:26:45.662Z,92.60
2018-02-01T22:29:13.210Z,88.10
2018-02-01T22:31:40.791Z,87.40
2018-02-01T22:34:08.325Z,84.93
2018-02-01T22:36:35.995Z,82.53
2018-02-01T22:39:03.981Z,82.67
2018-02-01T22:41:32.886Z,87.17
2018-02-01T22:44:00.430Z,90.40
2018-02-01T22:46:27.979Z,87.10
2018-02-01T22:48:55.563Z,79.80
2018-02-01T22:51:23.107Z,79.73
2018-02-01T22:53:50.988Z,74.20
2018-02-01T22:56:18.525Z,77.73
2018-02-01T22:58:46.099Z,83.13
2018-02-01T23:01:13.631Z,76.50
2018-02-01T23:03:41.210Z,74.60
2018-02-01T23:06:08.819Z,72.57
2018-02-01T23:08:36.422Z,75.37
2018-02-01T23:11:04.031Z,69.13
2018-02-01T23:13:31.876Z,64.60
2018-02-01T23:15:59.622Z,68.97
2018-02-01T23:18:27.410Z,78.17
2018-02-01T23:20:54.995Z,81.13
2018-02-01T23:23:22.629Z,74.30
2018-02-01T23:25:50.157Z,68.43
2018-02-01T23:28:17.693Z,76.57
2018-02-01T23:30:45.287Z,83.57
2018-02-01T23:33:12.883Z,76.80
2018-02-01T23:35:40.591Z,84.30
2018-02-01T23:38:08.938Z,82.83
2018-02-01T23:40:36.511Z,80.63
2018-02-01T23:43:04.127Z,92.70
2018-02-01T23:45:31.715Z,83.23
2018-02-01T23:47:59.249Z,77.07
2018-02-01T23:50:26.826Z,88.33
2018-02-01T23:55:27.104Z,81.57
2018-02-01T23:57:54.713Z,85.50
